Time;durP1;ratioP1;P1;durP2;ratioP2;P2;SDS_P1;SDS_P2;PMS_P1;PMS_P2;Temp;Humidity;BMP_temperature;BMP_pressure;BME280_temperature;BME280_humidity;BME280_pressure;Samples;Min_cycle;Max_cycle;Signal;HPM_P1;HPM_P2
2023/03/13 00:01:19;;;;;;;19.80;4.20;;;;;;;8.77;87.72;99719.39;105955;1259;74430;-69
2023/03/13 00:03:47;;;;;;;17.70;3.90;;;;;;;8.77;87.78;99718.33;105884;1259;71503;-70
2023/03/13 00:06:16;;;;;;;19.90;4.10;;;;;;;8.77;87.55;99717.39;106013;1260;71176;-69
2023/03/13 00:08:43;;;;;;;20.00;4.60;;;;;;;8.79;87.65;99715.14;106242;1259;61388;-69
2023/03/13 00:11:13;;;;;;;21.90;4.70;;;;;;;8.79;87.59;99714.08;105996;1260;61356;-69
2023/03/13 00:13:40;;;;;;;18.60;3.80;;;;;;;8.80;87.60;99705.67;106395;1259;74107;-71
2023/03/13 00:16:15;;;;;;;20.30;4.00;;;;;;;8.80;87.41;99702.94;106106;1259;70076;-70
2023/03/13 00:18:47;;;;;;;19.60;3.70;;;;;;;8.80;87.43;99699.73;106413;1266;72322;-71
2023/03/13 00:21:17;;;;;;;16.90;3.80;;;;;;;8.80;87.47;99692.89;106266;1263;61251;-68
2023/03/13 00:23:44;;;;;;;16.60;3.50;;;;;;;8.79;87.45;99687.83;105935;1261;61392;-68
2023/03/13 00:26:14;;;;;;;19.60;4.00;;;;;;;8.77;87.54;99684.69;105925;1266;74039;-68
2023/03/13 00:28:42;;;;;;;19.70;4.50;;;;;;;8.76;87.43;99682.55;106019;1260;70115;-70
2023/03/13 00:31:23;;;;;;;15.10;3.60;;;;;;;8.72;87.49;99679.31;106460;1259;72738;-69
2023/03/13 00:33:53;;;;;;;21.20;3.60;;;;;;;8.65;87.37;99674.47;106106;1259;61224;-68
2023/03/13 00:36:22;;;;;;;15.70;4.40;;;;;;;8.58;87.37;99685.54;106304;1259;61373;-67
2023/03/13 00:38:50;;;;;;;20.30;4.20;;;;;;;8.52;87.43;99684.63;106108;1260;73452;-69
2023/03/13 00:41:20;;;;;;;17.00;4.00;;;;;;;8.47;87.48;99678.84;106171;1259;69971;-68
2023/03/13 00:43:47;;;;;;;18.90;4.30;;;;;;;8.44;87.50;99671.16;105706;1260;72780;-71
2023/03/13 00:46:17;;;;;;;14.10;3.60;;;;;;;8.42;87.20;99665.76;105957;1259;61238;-70
2023/03/13 00:48:44;;;;;;;17.00;3.70;;;;;;;8.40;87.12;99660.02;105948;1266;61193;-69
2023/03/13 00:51:19;;;;;;;16.80;3.70;;;;;;;8.38;87.39;99660.52;106247;1259;74481;-69
2023/03/13 00:53:48;;;;;;;16.20;3.70;;;;;;;8.37;87.11;99659.09;105986;1268;70615;-71
2023/03/13 00:56:17;;;;;;;15.90;4.10;;;;;;;8.37;87.00;99656.41;106165;1262;72503;-68
2023/03/13 00:58:45;;;;;;;19.50;4.00;;;;;;;8.38;87.04;99656.26;106282;1265;61280;-69
2023/03/13 01:01:23;;;;;;;20.50;4.30;;;;;;;8.40;86.97;99649.58;106077;1259;61163;-68
2023/03/13 01:03:55;;;;;;;19.70;4.20;;;;;;;8.40;86.89;99650.61;106151;1265;73882;-72
2023/03/13 01:06:25;;;;;;;18.10;3.90;;;;;;;8.40;86.80;99644.98;106461;1259;70966;-69
2023/03/13 01:08:52;;;;;;;18.90;4.40;;;;;;;8.42;87.01;99637.06;106056;1259;71612;-68
2023/03/13 01:11:28;;;;;;;16.80;3.70;;;;;;;8.40;86.78;99629.99;106111;1259;61237;-69
2023/03/13 01:13:57;;;;;;;16.10;3.70;;;;;;;8.43;86.55;99631.39;106611;1265;61236;-68
2023/03/13 01:16:25;;;;;;;17.30;3.90;;;;;;;8.43;86.29;99625.07;106326;1259;74601;-68
2023/03/13 01:18:54;;;;;;;20.50;4.60;;;;;;;8.46;86.00;99622.91;105923;1264;71781;-69
2023/03/13 01:21:22;;;;;;;18.60;4.30;;;;;;;8.47;85.78;99623.89;106119;1265;71163;-70
2023/03/13 01:23:51;;;;;;;17.60;3.70;;;;;;;8.50;85.95;99621.09;106013;1265;61363;-70
2023/03/13 01:26:19;;;;;;;13.70;4.10;;;;;;;8.52;85.62;99620.13;106328;1260;61117;-69
2023/03/13 01:28:46;;;;;;;16.50;3.70;;;;;;;8.55;85.47;99610.50;105724;1266;74707;-71
2023/03/13 01:31:33;;;;;;;16.70;4.10;;;;;;;8.59;85.30;99612.56;106342;1268;70367;-69
2023/03/13 01:34:03;;;;;;;11.90;3.00;;;;;;;8.61;84.96;99608.63;106158;1260;72586;-68
2023/03/13 01:36:29;;;;;;;16.00;3.70;;;;;;;8.65;84.95;99602.89;106107;1262;61177;-68
2023/03/13 01:38:59;;;;;;;13.60;3.40;;;;;;;8.67;84.66;99596.73;106146;1260;61372;-67
2023/03/13 01:41:29;;;;;;;16.30;3.80;;;;;;;8.71;84.61;99597.49;106193;1265;74697;-71
2023/03/13 01:44:00;;;;;;;19.20;3.70;;;;;;;8.74;84.46;99592.89;106302;1259;71262;-68
2023/03/13 01:46:30;;;;;;;16.40;3.70;;;;;;;8.75;84.70;99583.91;105801;1266;72774;-72
2023/03/13 01:49:04;;;;;;;13.40;3.10;;;;;;;8.75;84.53;99585.48;106367;1259;61148;-68
2023/03/13 01:51:37;;;;;;;12.90;3.60;;;;;;;8.74;84.79;99576.29;106016;1260;61769;-67
2023/03/13 01:54:32;;;;;;;13.10;3.60;;;;;;;8.74;84.81;99569.48;105837;1266;74869;-68
2023/03/13 01:57:01;;;;;;;14.90;3.90;;;;;;;8.74;85.14;99563.88;106223;1260;70067;-68
2023/03/13 01:59:39;;;;;;;19.90;3.70;;;;;;;8.72;85.29;99553.80;106313;1259;72485;-67
2023/03/13 02:02:06;;;;;;;15.10;3.70;;;;;;;8.68;85.88;99550.80;106133;1263;61342;-69
2023/03/13 02:04:37;;;;;;;14.30;3.60;;;;;;;8.65;86.53;99542.16;107678;1259;61265;-68
2023/03/13 02:07:10;;;;;;;17.00;3.70;;;;;;;8.61;87.12;99536.88;108731;1260;74685;-68
2023/03/13 02:09:40;;;;;;;15.90;3.50;;;;;;;8.56;87.62;99531.64;107976;1262;69994;-69
2023/03/13 02:12:14;;;;;;;14.10;3.40;;;;;;;8.52;88.25;99523.92;105988;1264;72352;-70
2023/03/13 02:14:44;;;;;;;15.60;4.00;;;;;;;8.46;88.84;99515.25;107624;1260;61292;-70
2023/03/13 02:17:14;;;;;;;14.60;3.50;;;;;;;8.40;89.45;99508.39;105814;1259;61241;-69
2023/03/13 02:19:41;;;;;;;14.10;3.70;;;;;;;8.36;89.61;99505.05;105925;1260;74420;-70
2023/03/13 02:22:42;;;;;;;19.30;3.30;;;;;;;8.31;90.48;99500.25;106163;1264;70546;-68
2023/03/13 02:25:24;;;;;;;16.50;3.80;;;;;;;8.25;90.79;99492.86;106155;1265;72810;-70
2023/03/13 02:28:02;;;;;;;19.60;3.80;;;;;;;8.20;91.30;99487.79;106328;1266;61251;-70
2023/03/13 02:30:29;;;;;;;19.80;4.00;;;;;;;8.15;91.39;99483.30;105891;1266;62806;-69
2023/03/13 02:32:56;;;;;;;17.50;3.60;;;;;;;8.12;91.47;99479.46;106094;1263;73451;-69
2023/03/13 02:35:23;;;;;;;12.40;3.50;;;;;;;8.12;91.82;99471.74;107794;1265;70427;-69
2023/03/13 02:37:55;;;;;;;14.60;3.70;;;;;;;8.11;91.67;99465.30;105886;1267;72834;-69
2023/03/13 02:40:26;;;;;;;17.20;3.60;;;;;;;8.10;92.05;99463.20;105929;1261;61373;-69
2023/03/13 02:42:55;;;;;;;15.20;3.50;;;;;;;8.09;91.67;99457.33;106009;1261;61846;-69
2023/03/13 02:45:23;;;;;;;15.40;3.40;;;;;;;8.10;91.85;99448.72;106444;1262;74391;-68
2023/03/13 02:47:50;;;;;;;14.80;3.30;;;;;;;8.11;91.95;99453.16;106238;1263;70946;-68
2023/03/13 02:50:17;;;;;;;14.20;3.60;;;;;;;8.11;91.75;99451.42;105846;1259;72455;-69
2023/03/13 02:52:47;;;;;;;15.80;3.60;;;;;;;8.12;91.88;99443.91;106234;1260;61235;-69
2023/03/13 02:55:23;;;;;;;17.90;3.30;;;;;;;8.12;91.87;99433.88;106143;1260;61385;-69
2023/03/13 02:57:49;;;;;;;13.20;3.20;;;;;;;8.10;91.82;99421.37;106067;1261;72821;-69
2023/03/13 03:00:19;;;;;;;15.20;3.70;;;;;;;8.08;92.40;99415.63;105909;1266;70917;-71
2023/03/13 03:02:46;;;;;;;13.60;3.40;;;;;;;8.07;91.91;99405.34;106116;1259;71483;-69
2023/03/13 03:05:12;;;;;;;14.20;3.50;;;;;;;8.05;92.22;99399.63;106594;1265;61289;-69
2023/03/13 03:07:39;;;;;;;12.20;3.10;;;;;;;8.04;92.56;99396.17;106230;1263;61254;-69
2023/03/13 03:10:09;;;;;;;16.30;3.80;;;;;;;8.02;92.34;99390.08;106008;1267;75150;-69
2023/03/13 03:12:35;;;;;;;13.80;3.60;;;;;;;7.99;92.47;99381.39;105918;1270;69666;-69
2023/03/13 03:15:03;;;;;;;15.80;3.90;;;;;;;7.98;92.56;99375.00;106118;1264;72378;-69
2023/03/13 03:17:30;;;;;;;17.80;3.40;;;;;;;7.97;92.45;99367.39;105940;1265;61798;-69
2023/03/13 03:19:57;;;;;;;13.20;3.10;;;;;;;7.96;92.49;99356.63;106021;1261;59216;-68
2023/03/13 03:22:23;;;;;;;18.50;3.40;;;;;;;7.96;92.81;99349.95;106185;1264;73143;-69
2023/03/13 03:24:50;;;;;;;14.80;3.50;;;;;;;7.96;92.84;99344.30;105988;1265;70919;-70
2023/03/13 03:27:17;;;;;;;17.30;3.70;;;;;;;7.95;92.89;99338.29;106101;1260;61283;-69
2023/03/13 03:29:43;;;;;;;15.90;3.30;;;;;;;7.94;92.97;99330.23;106192;1265;61162;-69
2023/03/13 03:32:10;;;;;;;17.70;3.60;;;;;;;7.94;93.22;99321.30;106005;1260;61247;-69
2023/03/13 03:34:37;;;;;;;10.60;2.80;;;;;;;7.93;93.55;99319.50;105962;1265;61366;-69
2023/03/13 03:37:03;;;;;;;12.70;3.30;;;;;;;7.91;94.00;99314.61;105752;1266;70906;-69
2023/03/13 03:39:30;;;;;;;16.70;3.40;;;;;;;7.90;94.45;99308.02;106318;1263;72862;-69
2023/03/13 03:41:57;;;;;;;15.00;3.00;;;;;;;7.89;94.55;99304.20;106355;1260;61825;-68
2023/03/13 03:44:23;;;;;;;13.70;3.00;;;;;;;7.89;94.63;99295.14;106103;1260;61154;-69
2023/03/13 03:46:53;;;;;;;10.70;3.20;;;;;;;7.90;94.79;99285.68;106192;1264;73179;-69
2023/03/13 03:49:20;;;;;;;15.70;3.40;;;;;;;7.90;95.03;99284.13;106176;1261;70845;-69
2023/03/13 03:51:50;;;;;;;17.50;3.70;;;;;;;7.90;95.29;99280.56;106229;1262;71750;-69
2023/03/13 03:54:17;;;;;;;14.60;4.10;;;;;;;7.91;95.16;99270.95;105974;1264;61741;-71
2023/03/13 03:56:43;;;;;;;14.10;3.10;;;;;;;7.92;95.14;99259.53;106093;1265;61349;-69
2023/03/13 03:59:10;;;;;;;15.80;3.40;;;;;;;7.93;95.29;99259.75;106483;1261;73709;-70
2023/03/13 04:01:37;;;;;;;15.30;3.50;;;;;;;7.95;95.33;99262.85;106070;1260;69739;-68
2023/03/13 04:04:04;;;;;;;13.80;3.00;;;;;;;7.98;95.40;99255.77;106224;1261;72500;-69
2023/03/13 04:06:30;;;;;;;11.00;3.10;;;;;;;7.98;95.68;99248.61;105804;1266;61462;-71
2023/03/13 04:08:57;;;;;;;16.20;3.60;;;;;;;7.99;95.68;99245.16;105800;1260;61416;-70
2023/03/13 04:11:24;;;;;;;14.10;3.40;;;;;;;8.01;95.95;99240.70;105997;1266;75350;-68
2023/03/13 04:13:50;;;;;;;14.00;3.20;;;;;;;8.01;95.89;99234.66;106288;1259;71036;-67
2023/03/13 04:16:17;;;;;;;14.80;2.90;;;;;;;8.01;96.33;99229.38;106229;1260;61229;-71
2023/03/13 04:18:44;;;;;;;12.20;2.80;;;;;;;8.02;96.29;99234.48;106112;1261;62095;-69
2023/03/13 04:21:13;;;;;;;14.20;3.20;;;;;;;8.03;96.61;99235.95;105737;1261;61198;-71
2023/03/13 04:23:40;;;;;;;15.90;3.60;;;;;;;8.04;96.94;99244.05;106220;1263;73710;-68
2023/03/13 04:26:07;;;;;;;15.70;3.60;;;;;;;8.04;97.48;99237.30;106223;1260;70526;-69
2023/03/13 04:28:37;;;;;;;16.40;3.20;;;;;;;8.05;97.73;99229.48;105978;1260;71264;-69
2023/03/13 04:31:04;;;;;;;13.40;3.10;;;;;;;8.05;98.12;99208.42;105883;1266;61372;-68
2023/03/13 04:33:31;;;;;;;14.90;3.70;;;;;;;8.04;98.05;99198.63;106522;1260;61159;-71
2023/03/13 04:35:58;;;;;;;14.50;3.30;;;;;;;8.05;98.41;99200.78;106303;1259;73332;-68
2023/03/13 04:38:24;;;;;;;13.90;2.80;;;;;;;8.05;98.53;99196.72;106141;1264;70083;-69
2023/03/13 04:40:51;;;;;;;19.20;3.00;;;;;;;8.04;99.29;99183.91;105951;1264;61374;-69
2023/03/13 04:43:18;;;;;;;11.70;3.00;;;;;;;8.02;99.71;99183.67;105843;1260;61244;-70
2023/03/13 04:45:45;;;;;;;19.90;3.70;;;;;;;8.00;99.84;99179.52;106288;1261;61836;-69
2023/03/13 04:48:13;;;;;;;13.80;3.50;;;;;;;7.97;100.00;99175.13;106404;1260;74780;-70
2023/03/13 04:50:40;;;;;;;13.10;2.70;;;;;;;7.94;100.00;99168.48;106216;1265;71475;-70
2023/03/13 04:53:07;;;;;;;15.10;3.50;;;;;;;7.91;100.00;99165.66;106107;1263;72426;-70
2023/03/13 04:55:34;;;;;;;13.80;3.10;;;;;;;7.89;100.00;99157.56;105850;1260;61301;-70
2023/03/13 04:58:01;;;;;;;16.90;3.50;;;;;;;7.87;100.00;99148.42;106385;1260;61123;-69
2023/03/13 05:00:28;;;;;;;15.60;3.20;;;;;;;7.84;100.00;99143.20;106010;1260;73211;-70
2023/03/13 05:02:55;;;;;;;16.70;3.30;;;;;;;7.82;100.00;99139.62;106111;1260;68759;-69
2023/03/13 05:05:22;;;;;;;13.40;3.40;;;;;;;7.80;100.00;99133.03;106202;1263;73370;-71
2023/03/13 05:07:49;;;;;;;13.60;3.10;;;;;;;7.78;100.00;99122.82;106768;1260;61359;-68
2023/03/13 05:10:16;;;;;;;14.20;3.30;;;;;;;7.78;100.00;99111.05;106162;1260;61114;-71
2023/03/13 05:12:43;;;;;;;14.20;3.50;;;;;;;7.78;100.00;99103.04;105903;1266;76177;-71
2023/03/13 05:15:12;;;;;;;16.20;3.50;;;;;;;7.76;100.00;99098.73;105696;1262;69308;-71
2023/03/13 05:17:39;;;;;;;13.50;3.20;;;;;;;7.75;100.00;99099.54;106051;1260;73763;-70
2023/03/13 05:20:09;;;;;;;16.90;3.50;;;;;;;7.74;100.00;99102.26;106362;1261;61259;-70
2023/03/13 05:22:40;;;;;;;13.00;3.20;;;;;;;7.75;100.00;99098.32;105913;1260;61396;-69
2023/03/13 05:25:07;;;;;;;13.60;3.20;;;;;;;7.76;100.00;99105.47;106396;1263;74398;-69
2023/03/13 05:27:40;;;;;;;17.60;4.10;;;;;;;7.77;100.00;99100.64;106269;1261;70954;-69
2023/03/13 05:30:07;;;;;;;15.30;3.50;;;;;;;7.79;100.00;99103.25;105989;1260;71728;-69
2023/03/13 05:32:34;;;;;;;16.30;3.60;;;;;;;7.82;100.00;99089.83;105963;1260;61314;-69
2023/03/13 05:35:02;;;;;;;19.70;4.20;;;;;;;7.82;100.00;99092.02;105922;1266;61521;-68
2023/03/13 05:37:29;;;;;;;13.80;3.80;;;;;;;7.83;100.00;99084.03;106141;1265;73458;-70
2023/03/13 05:39:56;;;;;;;14.20;3.90;;;;;;;7.86;100.00;99084.59;106178;1260;70656;-70
2023/03/13 05:42:25;;;;;;;15.70;3.50;;;;;;;7.85;100.00;99077.91;106586;1260;71204;-70
2023/03/13 05:44:53;;;;;;;16.00;3.70;;;;;;;7.87;100.00;99075.17;106116;1260;61754;-69
2023/03/13 05:47:19;;;;;;;14.30;3.00;;;;;;;7.88;100.00;99069.27;105959;1263;59319;-71
2023/03/13 05:49:46;;;;;;;16.80;3.50;;;;;;;7.90;100.00;99068.66;106830;1260;73166;-69
2023/03/13 05:52:13;;;;;;;16.40;3.30;;;;;;;7.93;100.00;99060.77;106070;1260;71494;-74
2023/03/13 05:54:40;;;;;;;11.30;3.00;;;;;;;7.96;100.00;99053.48;106147;1260;73656;-76
2023/03/13 05:57:07;;;;;;;11.90;3.10;;;;;;;7.99;100.00;99054.83;106243;1263;61739;-76
2023/03/13 05:59:37;;;;;;;12.50;3.00;;;;;;;8.02;100.00;99060.79;106839;1259;61222;-76
2023/03/13 06:02:05;;;;;;;13.20;3.70;;;;;;;8.05;100.00;99052.49;107162;1260;74411;-76
2023/03/13 06:04:34;;;;;;;12.80;3.30;;;;;;;8.09;100.00;99048.98;106267;1261;68995;-75
2023/03/13 06:07:05;;;;;;;13.10;3.50;;;;;;;8.12;100.00;99047.02;106393;1264;72920;-77
2023/03/13 06:09:33;;;;;;;15.20;3.20;;;;;;;8.16;100.00;99047.86;107838;1260;61260;-74
2023/03/13 06:11:59;;;;;;;11.60;2.70;;;;;;;8.20;100.00;99043.02;106323;1260;61238;-75
2023/03/13 06:14:29;;;;;;;14.00;2.90;;;;;;;8.24;100.00;99040.02;106087;1263;73448;-75
2023/03/13 06:16:57;;;;;;;12.00;2.60;;;;;;;8.28;100.00;99044.98;106339;1262;69788;-75
2023/03/13 06:19:24;;;;;;;12.10;2.70;;;;;;;8.32;100.00;99041.38;106027;1260;71584;-75
2023/03/13 06:21:54;;;;;;;9.30;2.30;;;;;;;8.40;100.00;99042.02;106544;1264;59276;-74
2023/03/13 06:24:21;;;;;;;10.80;2.30;;;;;;;8.46;100.00;99049.15;106290;1260;61484;-76
2023/03/13 06:26:49;;;;;;;10.70;2.40;;;;;;;8.50;100.00;99044.00;106003;1259;73391;-75
2023/03/13 06:29:17;;;;;;;8.20;1.60;;;;;;;8.56;100.00;99036.48;106035;1261;70229;-75
2023/03/13 06:31:46;;;;;;;8.10;1.80;;;;;;;8.60;100.00;99034.08;106264;1267;72042;-76
2023/03/13 06:34:22;;;;;;;7.30;1.70;;;;;;;8.64;100.00;99038.48;106260;1259;61281;-76
2023/03/13 06:36:51;;;;;;;6.90;1.70;;;;;;;8.67;100.00;99037.22;106066;1260;61276;-75
2023/03/13 06:39:35;;;;;;;8.70;1.80;;;;;;;8.70;100.00;99031.16;106479;1260;72816;-74
2023/03/13 06:42:02;;;;;;;7.20;1.90;;;;;;;8.74;100.00;99023.02;107739;1260;70937;-75
2023/03/13 06:44:29;;;;;;;7.50;1.60;;;;;;;8.77;100.00;99024.55;107633;1262;72678;-76
2023/03/13 06:46:58;;;;;;;5.70;1.70;;;;;;;8.81;100.00;99027.25;106732;1260;61510;-75
2023/03/13 06:49:26;;;;;;;7.60;1.80;;;;;;;8.86;100.00;99027.33;106452;1259;61104;-75
2023/03/13 06:51:55;;;;;;;8.10;2.10;;;;;;;8.89;100.00;99021.18;106587;1260;74469;-75
2023/03/13 06:54:27;;;;;;;4.70;1.50;;;;;;;8.93;100.00;99023.69;106180;1260;71029;-75
2023/03/13 06:56:54;;;;;;;6.10;1.60;;;;;;;8.96;100.00;99013.27;106989;1260;72454;-75
2023/03/13 06:59:21;;;;;;;4.30;1.30;;;;;;;9.01;100.00;99010.88;106443;1260;61624;-75
2023/03/13 07:01:51;;;;;;;6.40;1.80;;;;;;;9.05;100.00;99012.29;106072;1266;62790;-75
2023/03/13 07:04:23;;;;;;;5.50;1.60;;;;;;;9.09;100.00;98999.34;106190;1262;74851;-77
2023/03/13 07:06:50;;;;;;;6.40;1.60;;;;;;;9.11;100.00;98999.38;106211;1261;69987;-75
2023/03/13 07:09:18;;;;;;;8.20;1.80;;;;;;;9.14;100.00;99002.02;107174;1260;74343;-74
2023/03/13 07:11:49;;;;;;;6.90;1.80;;;;;;;9.17;100.00;98999.65;106445;1259;61019;-74
2023/03/13 07:14:16;;;;;;;5.00;1.40;;;;;;;9.18;100.00;98998.63;106495;1260;61269;-74
2023/03/13 07:16:44;;;;;;;7.30;1.40;;;;;;;9.20;100.00;98999.84;107182;1259;74781;-74
2023/03/13 07:19:13;;;;;;;6.00;1.40;;;;;;;9.21;100.00;99003.10;108579;1260;70585;-74
2023/03/13 07:21:43;;;;;;;5.30;1.30;;;;;;;9.23;100.00;98999.75;106013;1259;71192;-75
2023/03/13 07:24:10;;;;;;;4.00;1.30;;;;;;;9.27;100.00;98999.95;106184;1260;61234;-77
2023/03/13 07:26:38;;;;;;;5.60;1.30;;;;;;;9.32;100.00;98996.96;106952;1260;61241;-77
2023/03/13 07:29:05;;;;;;;5.30;1.40;;;;;;;9.37;100.00;98999.75;106793;1259;73489;-80
2023/03/13 07:31:32;;;;;;;3.80;1.30;;;;;;;9.43;100.00;99000.07;106157;1260;71015;-78
2023/03/13 07:34:01;;;;;;;4.60;1.30;;;;;;;9.49;100.00;99001.18;106719;1260;71956;-78
2023/03/13 07:36:34;;;;;;;3.50;1.20;;;;;;;9.55;100.00;99003.88;106332;1259;61161;-78
2023/03/13 07:39:03;;;;;;;5.50;1.40;;;;;;;9.60;100.00;99005.78;106420;1259;61688;-76
2023/03/13 07:41:32;;;;;;;4.20;1.30;;;;;;;9.66;100.00;99001.20;105948;1264;75720;-77
2023/03/13 07:43:59;;;;;;;3.40;1.20;;;;;;;9.70;100.00;98993.30;107785;1259;71674;-78
2023/03/13 07:46:26;;;;;;;3.90;1.40;;;;;;;9.74;100.00;98993.70;106087;1260;72943;-78
2023/03/13 07:48:56;;;;;;;5.10;2.20;;;;;;;9.80;100.00;99004.47;106150;1260;61187;-77
2023/03/13 07:51:24;;;;;;;4.10;1.50;;;;;;;9.87;100.00;99007.65;105976;1260;61266;-77
2023/03/13 07:54:09;;;;;;;3.70;1.50;;;;;;;9.95;100.00;99013.23;106466;1260;73623;-78
2023/03/13 07:56:36;;;;;;;3.30;1.40;;;;;;;10.00;100.00;99005.95;106318;1259;69651;-77
2023/03/13 07:59:03;;;;;;;5.00;1.70;;;;;;;10.07;100.00;99018.88;105935;1264;71539;-77
2023/03/13 08:01:31;;;;;;;4.10;1.50;;;;;;;10.11;100.00;99023.48;106069;1259;61220;-76
2023/03/13 08:04:01;;;;;;;4.30;1.50;;;;;;;10.18;100.00;99019.55;105880;1260;61374;-78
2023/03/13 08:06:34;;;;;;;4.70;1.70;;;;;;;10.25;100.00;99026.64;105941;1259;74812;-74
2023/03/13 08:09:04;;;;;;;3.40;1.60;;;;;;;10.30;100.00;99023.85;105935;1260;72162;-74
2023/03/13 08:11:31;;;;;;;4.10;1.80;;;;;;;10.34;100.00;99028.41;106509;1259;72445;-74
2023/03/13 08:14:03;;;;;;;3.30;1.60;;;;;;;10.38;100.00;99022.48;105560;1260;61768;-74
2023/03/13 08:16:33;;;;;;;3.50;1.20;;;;;;;10.43;100.00;99022.39;106039;1259;61167;-74
2023/03/13 08:19:03;;;;;;;2.60;1.20;;;;;;;10.44;100.00;99014.91;105717;1268;75240;-75
2023/03/13 08:21:35;;;;;;;3.90;1.40;;;;;;;10.48;100.00;99020.55;105978;1261;72175;-74
2023/03/13 08:24:05;;;;;;;3.50;1.20;;;;;;;10.50;100.00;99019.02;105803;1260;71577;-75
2023/03/13 08:26:35;;;;;;;3.40;1.40;;;;;;;10.53;100.00;99013.02;105681;1259;61629;-76
2023/03/13 08:29:05;;;;;;;1.90;1.20;;;;;;;10.55;100.00;99016.05;106203;1264;61845;-74
2023/03/13 08:31:37;;;;;;;3.20;1.20;;;;;;;10.59;100.00;99009.66;105649;1260;74217;-74
2023/03/13 08:34:04;;;;;;;3.40;1.10;;;;;;;10.61;100.00;99006.95;106064;1259;69758;-73
2023/03/13 08:36:35;;;;;;;2.60;1.30;;;;;;;10.67;100.00;98998.24;105854;1263;72108;-74
2023/03/13 08:39:08;;;;;;;2.80;1.10;;;;;;;10.74;100.00;98990.96;105994;1261;61708;-74
2023/03/13 08:41:35;;;;;;;3.30;1.10;;;;;;;10.80;100.00;98987.68;105958;1259;61761;-76
2023/03/13 08:44:03;;;;;;;3.50;1.30;;;;;;;10.87;100.00;98993.42;106168;1259;75726;-74
2023/03/13 08:46:34;;;;;;;2.60;1.10;;;;;;;10.92;100.00;98993.70;106356;1261;71201;-74
2023/03/13 08:49:03;;;;;;;2.50;1.20;;;;;;;10.96;100.00;98992.40;105831;1259;306264;-75
2023/03/13 08:51:36;;;;;;;2.40;1.00;;;;;;;10.99;100.00;98991.27;105909;1261;61160;-75
2023/03/13 08:54:03;;;;;;;3.10;1.40;;;;;;;11.05;100.00;98987.63;106035;1260;61356;-75
2023/03/13 08:56:31;;;;;;;4.00;1.80;;;;;;;11.08;100.00;98985.76;106271;1259;73445;-76
2023/03/13 08:59:00;;;;;;;3.90;1.40;;;;;;;11.11;100.00;98981.02;106021;1260;70123;-74
2023/03/13 09:01:30;;;;;;;3.20;1.30;;;;;;;11.17;100.00;98980.52;105962;1259;72782;-74
2023/03/13 09:03:57;;;;;;;2.90;1.20;;;;;;;11.22;100.00;98980.64;105838;1267;61579;-73
2023/03/13 09:06:28;;;;;;;4.00;1.30;;;;;;;11.28;100.00;98979.48;106095;1260;61180;-74
2023/03/13 09:08:57;;;;;;;3.10;1.40;;;;;;;11.32;100.00;98971.00;105762;1260;74448;-73
2023/03/13 09:11:24;;;;;;;3.20;1.30;;;;;;;11.40;100.00;98966.77;105518;1267;69470;-74
2023/03/13 09:13:54;;;;;;;2.90;1.20;;;;;;;11.49;99.98;98972.79;105871;1259;72883;-74
2023/03/13 09:16:28;;;;;;;5.70;1.40;;;;;;;11.58;99.68;98973.27;105598;1260;61952;-73
2023/03/13 09:18:57;;;;;;;3.20;1.20;;;;;;;11.65;98.87;98967.08;106041;1260;61339;-75
2023/03/13 09:21:28;;;;;;;2.70;1.00;;;;;;;11.74;98.45;98956.49;105924;1259;73687;-73
2023/03/13 09:23:56;;;;;;;2.50;1.20;;;;;;;11.81;97.94;98953.54;106082;1259;71274;-73
2023/03/13 09:26:26;;;;;;;2.70;1.20;;;;;;;11.88;97.36;98949.57;105899;1263;72700;-74
2023/03/13 09:28:54;;;;;;;2.40;1.20;;;;;;;11.91;96.54;98940.79;105883;1260;61370;-73
2023/03/13 09:31:23;;;;;;;3.00;1.10;;;;;;;11.95;96.15;98945.89;105995;1260;61340;-73
2023/03/13 09:33:50;;;;;;;3.70;1.30;;;;;;;12.00;95.69;98932.86;106005;1259;74034;-74
2023/03/13 09:36:18;;;;;;;4.30;1.10;;;;;;;12.09;95.22;98937.11;105845;1264;71201;-73
2023/03/13 09:38:52;;;;;;;2.80;1.20;;;;;;;12.15;94.58;98942.52;106590;1260;72924;-74
2023/03/13 09:41:25;;;;;;;4.20;1.30;;;;;;;12.22;94.40;98933.45;106015;1260;61731;-73
2023/03/13 09:44:13;;;;;;;3.40;1.00;;;;;;;12.28;93.96;98933.20;105852;1259;61792;-73
2023/03/13 09:46:46;;;;;;;3.00;1.20;;;;;;;12.35;93.50;98926.42;105690;1259;74958;-71
2023/03/13 09:49:32;;;;;;;3.90;1.20;;;;;;;12.46;93.06;98912.89;106237;1259;71872;-72
2023/03/13 09:52:30;;;;;;;2.90;1.20;;;;;;;12.55;92.16;98913.85;105857;1260;72554;-72
2023/03/13 09:55:02;;;;;;;2.50;1.20;;;;;;;12.71;91.99;98912.34;106040;1259;61281;-72
2023/03/13 09:57:37;;;;;;;2.70;1.00;;;;;;;12.80;91.12;98915.20;105821;1260;61325;-72
2023/03/13 10:00:13;;;;;;;3.40;1.00;;;;;;;12.86;90.41;98915.00;106022;1260;72601;-71
2023/03/13 10:02:56;;;;;;;3.00;1.10;;;;;;;12.93;89.78;98914.10;106177;1259;71262;-72
2023/03/13 10:05:24;;;;;;;2.60;1.10;;;;;;;13.05;89.66;98909.70;105747;1262;73550;-74
2023/03/13 10:08:14;;;;;;;2.60;1.00;;;;;;;13.14;89.14;98905.56;106121;1259;61657;-70
2023/03/13 10:10:44;;;;;;;2.90;1.20;;;;;;;13.18;88.67;98915.88;105972;1259;62225;-74
2023/03/13 10:13:20;;;;;;;4.20;1.60;;;;;;;13.19;88.23;98924.30;106137;1259;75026;-72
2023/03/13 10:16:00;;;;;;;4.90;1.20;;;;;;;13.21;88.42;98920.73;106125;1259;71314;-72
2023/03/13 10:18:28;;;;;;;3.50;1.00;;;;;;;13.25;88.15;98924.27;105743;1259;71590;-73
2023/03/13 10:21:04;;;;;;;4.40;1.20;;;;;;;13.27;88.23;98920.47;105826;1259;62045;-72
2023/03/13 10:23:51;;;;;;;4.30;1.10;;;;;;;13.31;88.14;98922.64;105763;1259;61366;-73
2023/03/13 10:26:26;;;;;;;3.70;1.20;;;;;;;13.36;87.96;98933.77;105673;1259;73516;-72
2023/03/13 10:28:55;;;;;;;3.50;1.10;;;;;;;13.41;87.33;98916.53;106140;1259;71333;-72
2023/03/13 10:31:35;;;;;;;28.20;3.70;;;;;;;13.49;87.43;98924.39;105675;1259;71590;-73
2023/03/13 10:34:10;;;;;;;6.60;1.60;;;;;;;13.58;87.38;98920.13;106266;1259;61308;-71
2023/03/13 10:36:46;;;;;;;5.50;2.00;;;;;;;13.61;87.11;98927.88;105909;1259;61315;-71
2023/03/13 10:39:24;;;;;;;4.90;1.40;;;;;;;13.65;87.64;98927.63;106297;1260;73318;-71
2023/03/13 10:41:57;;;;;;;5.10;1.50;;;;;;;13.69;87.31;98922.64;105943;1261;72040;-73
2023/03/13 10:44:31;;;;;;;2.50;0.90;;;;;;;13.69;86.85;98927.64;106006;1260;72713;-72
2023/03/13 10:47:01;;;;;;;3.30;1.20;;;;;;;13.75;86.90;98930.40;105968;1265;61785;-73
2023/03/13 10:49:31;;;;;;;3.10;1.20;;;;;;;13.84;86.91;98926.05;105834;1265;61165;-72
2023/03/13 10:52:00;;;;;;;3.00;1.10;;;;;;;13.99;86.24;98926.67;105970;1259;74416;-73
2023/03/13 10:54:30;;;;;;;4.90;1.40;;;;;;;14.23;85.68;98916.04;106167;1259;70030;-72
2023/03/13 10:57:37;;;;;;;4.20;1.40;;;;;;;14.48;84.65;98907.18;106195;1261;74280;-72
2023/03/13 11:00:27;;;;;;;4.00;1.00;;;;;;;14.75;83.44;98895.23;105902;1260;62257;-72
2023/03/13 11:02:54;;;;;;;3.40;1.00;;;;;;;14.97;82.94;98894.87;105889;1261;61341;-72
2023/03/13 11:05:24;;;;;;;2.20;1.00;;;;;;;15.08;82.18;98895.37;105881;1259;75638;-74
2023/03/13 11:07:52;;;;;;;3.20;1.10;;;;;;;15.34;81.24;98885.15;106090;1259;70456;-72
2023/03/13 11:10:35;;;;;;;3.80;1.30;;;;;;;15.52;80.35;98893.36;105652;1262;72414;-72
2023/03/13 11:13:03;;;;;;;4.50;0.90;;;;;;;15.69;79.30;98887.70;106482;1265;61208;-73
2023/03/13 11:15:43;;;;;;;3.30;1.10;;;;;;;15.79;78.35;98881.25;105738;1259;61262;-74
2023/03/13 11:18:20;;;;;;;2.50;1.10;;;;;;;15.89;77.92;98877.38;105986;1260;73257;-72
2023/03/13 11:20:48;;;;;;;3.70;1.10;;;;;;;15.93;76.50;98878.27;105821;1261;72382;-75
2023/03/13 11:23:28;;;;;;;3.30;1.20;;;;;;;15.98;75.90;98878.05;105694;1263;71191;-74
2023/03/13 11:26:20;;;;;;;4.40;1.50;;;;;;;16.02;75.59;98867.70;105833;1266;61604;-74
2023/03/13 11:29:01;;;;;;;3.90;1.20;;;;;;;16.15;75.29;98865.94;106212;1259;61369;-72
2023/03/13 11:31:36;;;;;;;4.40;1.40;;;;;;;16.16;74.57;98865.14;106108;1262;74978;-73
2023/03/13 11:34:12;;;;;;;2.60;1.20;;;;;;;16.21;74.57;98852.33;105779;1259;73560;-72
2023/03/13 11:36:54;;;;;;;3.70;1.10;;;;;;;16.21;73.74;98848.09;105949;1261;72423;-74
2023/03/13 11:39:42;;;;;;;4.50;1.10;;;;;;;16.42;73.18;98846.26;106315;1259;61930;-72